createdAt,value
2019-06-27T00:01:11.112Z,40.42
2019-06-27T00:03:39.316Z,40.82
2019-06-27T00:06:07.504Z,40.58
2019-06-27T00:08:36.109Z,40.62
2019-06-27T00:11:04.998Z,40.56
2019-06-27T00:13:33.665Z,40.95
2019-06-27T00:16:01.802Z,40.91
2019-06-27T00:18:30.051Z,40.97
2019-06-27T00:21:00.779Z,40.94
2019-06-27T00:23:29.089Z,40.99
2019-06-27T00:25:57.831Z,40.82
2019-06-27T00:28:26.758Z,40.96
2019-06-27T00:30:55.081Z,40.94
2019-06-27T00:33:23.984Z,41.10
2019-06-27T00:35:52.604Z,40.85
2019-06-27T00:38:20.825Z,40.75
2019-06-27T00:40:49.491Z,40.79
2019-06-27T00:43:17.830Z,41.06
2019-06-27T00:45:47.065Z,41.18
2019-06-27T00:48:15.425Z,41.13
2019-06-27T00:50:43.716Z,41.10
2019-06-27T00:53:13.225Z,40.93
2019-06-27T00:55:42.013Z,40.74
2019-06-27T00:58:13.761Z,40.83
2019-06-27T01:00:42.216Z,40.92
2019-06-27T01:03:11.083Z,41.19
2019-06-27T01:05:39.628Z,41.13
2019-06-27T01:08:07.754Z,41.36
2019-06-27T01:10:36.413Z,41.40
2019-06-27T01:13:05.005Z,41.29
2019-06-27T01:15:33.528Z,41.27
2019-06-27T01:18:02.394Z,41.46
2019-06-27T01:20:31.094Z,41.31
2019-06-27T01:22:59.441Z,41.37
2019-06-27T01:25:29.396Z,41.01
2019-06-27T01:27:57.536Z,40.81
2019-06-27T01:30:26.068Z,40.77
2019-06-27T01:32:54.664Z,40.89
2019-06-27T01:35:22.901Z,40.89
2019-06-27T01:37:53.048Z,41.05
2019-06-27T01:40:21.310Z,41.06
2019-06-27T01:42:50.091Z,40.97
2019-06-27T01:45:26.599Z,41.16
2019-06-27T01:47:54.850Z,41.05
2019-06-27T01:50:23.037Z,41.00
2019-06-27T01:52:51.103Z,40.86
2019-06-27T01:55:19.588Z,40.92
2019-06-27T01:57:47.724Z,41.01
2019-06-27T02:00:16.114Z,41.05
2019-06-27T02:02:44.870Z,41.08
2019-06-27T02:05:16.460Z,41.12
2019-06-27T02:07:44.949Z,41.17
2019-06-27T02:10:13.220Z,41.15
2019-06-27T02:12:41.532Z,41.11
2019-06-27T02:15:10.383Z,41.05
2019-06-27T02:17:38.658Z,41.11
2019-06-27T02:20:06.840Z,41.08
2019-06-27T02:22:35.006Z,41.09
2019-06-27T02:25:03.650Z,41.02
2019-06-27T02:27:31.820Z,41.10
2019-06-27T02:30:00.078Z,41.00
2019-06-27T02:32:30.468Z,40.86
2019-06-27T02:34:58.768Z,40.80
2019-06-27T02:37:27.026Z,40.92
2019-06-27T02:39:55.405Z,40.98
2019-06-27T02:42:23.693Z,40.85
2019-06-27T02:44:53.361Z,41.01
2019-06-27T02:47:21.718Z,41.01
2019-06-27T02:49:51.054Z,41.01
2019-06-27T02:52:19.778Z,41.00
2019-06-27T02:54:48.802Z,41.02
2019-06-27T02:57:17.830Z,40.98
2019-06-27T02:59:46.798Z,40.84
2019-06-27T03:02:15.535Z,40.92
2019-06-27T03:04:45.053Z,40.94
2019-06-27T03:07:13.478Z,40.91
2019-06-27T03:09:41.909Z,40.95
2019-06-27T03:12:10.639Z,40.90
2019-06-27T03:14:38.759Z,41.14
2019-06-27T03:17:07.255Z,41.05
2019-06-27T03:19:35.992Z,40.76
2019-06-27T03:22:06.069Z,40.92
2019-06-27T03:24:34.981Z,40.91
2019-06-27T03:27:03.114Z,40.81
2019-06-27T03:29:31.870Z,40.83
2019-06-27T03:32:00.336Z,40.86
2019-06-27T03:34:28.537Z,40.85
2019-06-27T03:36:56.930Z,40.82
2019-06-27T03:39:26.316Z,41.06
2019-06-27T03:41:54.890Z,40.87
2019-06-27T03:44:23.681Z,40.72
2019-06-27T03:46:52.341Z,40.66
2019-06-27T03:49:20.883Z,40.70
2019-06-27T03:51:49.275Z,40.79
2019-06-27T03:54:17.627Z,40.78
2019-06-27T03:56:46.702Z,40.62
2019-06-27T03:59:15.066Z,40.63
2019-06-27T04:01:43.497Z,40.83
2019-06-27T04:04:12.777Z,40.79
2019-06-27T04:06:41.418Z,40.85
2019-06-27T04:09:09.717Z,40.77
2019-06-27T04:11:38.003Z,41.00
2019-06-27T04:14:06.554Z,40.71
2019-06-27T04:16:37.724Z,40.71
2019-06-27T04:19:06.038Z,40.69
2019-06-27T04:21:34.969Z,40.59
2019-06-27T04:24:03.617Z,40.46
2019-06-27T04:26:32.220Z,40.47
2019-06-27T04:29:01.342Z,40.50
2019-06-27T04:31:30.410Z,40.28
2019-06-27T04:33:59.039Z,40.22
2019-06-27T04:36:27.474Z,40.57
2019-06-27T04:38:56.323Z,40.87
2019-06-27T04:41:24.843Z,40.93
2019-06-27T04:43:53.614Z,40.82
2019-06-27T04:46:22.675Z,40.89
2019-06-27T04:48:50.874Z,40.68
2019-06-27T04:51:19.239Z,40.64
2019-06-27T04:53:47.986Z,41.16
2019-06-27T04:56:16.053Z,40.85
2019-06-27T04:58:44.639Z,40.94
2019-06-27T05:01:13.282Z,41.10
2019-06-27T05:03:41.790Z,41.15
2019-06-27T05:06:10.538Z,41.09
2019-06-27T05:08:38.983Z,41.41
2019-06-27T05:11:15.080Z,41.21
2019-06-27T05:13:44.145Z,41.32
2019-06-27T05:16:12.896Z,41.20
2019-06-27T05:18:42.003Z,41.27
2019-06-27T05:21:10.198Z,41.61
2019-06-27T05:23:38.677Z,41.24
2019-06-27T05:26:09.985Z,41.03
2019-06-27T05:28:38.357Z,40.94
2019-06-27T05:31:06.659Z,40.95
2019-06-27T05:33:35.509Z,40.95
2019-06-27T05:36:04.061Z,40.86
2019-06-27T05:38:32.736Z,40.92
2019-06-27T05:41:01.749Z,40.73
2019-06-27T05:43:30.154Z,40.68
2019-06-27T05:45:58.264Z,40.71
2019-06-27T05:48:26.525Z,40.56
2019-06-27T05:50:54.799Z,40.57
2019-06-27T05:53:23.427Z,40.38
2019-06-27T05:55:52.006Z,40.40
2019-06-27T05:58:20.225Z,40.68
2019-06-27T06:00:48.429Z,40.46
2019-06-27T06:03:16.786Z,40.51
2019-06-27T06:05:47.898Z,40.40
2019-06-27T06:08:16.585Z,40.34
2019-06-27T06:10:44.775Z,40.42
2019-06-27T06:13:13.095Z,40.54
2019-06-27T06:15:41.442Z,40.36
2019-06-27T06:18:10.008Z,40.48
2019-06-27T06:20:38.272Z,40.33
2019-06-27T06:23:06.713Z,40.30
2019-06-27T06:25:35.037Z,40.30
2019-06-27T06:28:03.742Z,40.23
2019-06-27T06:30:44.014Z,40.21
2019-06-27T06:33:02.377Z,40.17
2019-06-27T06:35:30.928Z,40.27
2019-06-27T06:37:59.106Z,40.33
2019-06-27T06:40:27.671Z,40.34
2019-06-27T06:43:00.152Z,40.37
2019-06-27T06:45:26.412Z,40.32
2019-06-27T06:47:54.998Z,40.55
2019-06-27T06:50:23.686Z,40.37
2019-06-27T06:52:53.045Z,40.38
2019-06-27T06:55:21.521Z,40.25
2019-06-27T06:57:49.790Z,40.34
2019-06-27T07:00:18.024Z,40.37
2019-06-27T07:02:46.656Z,40.41
2019-06-27T07:05:14.813Z,40.67
2019-06-27T07:07:43.325Z,40.63
2019-06-27T07:10:11.968Z,40.52
2019-06-27T07:12:40.438Z,40.29
2019-06-27T07:15:09.246Z,40.45
2019-06-27T07:17:38.023Z,40.42
2019-06-27T07:20:06.414Z,40.37
2019-06-27T07:22:34.476Z,40.38
2019-06-27T07:25:02.741Z,40.35
2019-06-27T07:27:32.649Z,40.43
2019-06-27T07:30:00.848Z,40.28
2019-06-27T07:32:29.442Z,40.34
2019-06-27T07:34:58.484Z,40.37
2019-06-27T07:37:26.908Z,40.24
2019-06-27T07:39:55.336Z,40.23
2019-06-27T07:42:24.176Z,40.15
2019-06-27T07:44:52.401Z,40.15
2019-06-27T07:47:20.876Z,40.09
2019-06-27T07:49:49.103Z,40.02
2019-06-27T07:52:17.247Z,40.04
2019-06-27T07:54:46.183Z,39.89
2019-06-27T07:57:14.687Z,39.87
2019-06-27T07:59:43.064Z,39.70
2019-06-27T08:02:11.269Z,39.89
2019-06-27T08:04:39.526Z,40.10
2019-06-27T08:07:08.476Z,40.29
2019-06-27T08:09:36.800Z,39.99
2019-06-27T08:12:05.433Z,39.93
2019-06-27T08:14:33.779Z,40.18
2019-06-27T08:17:02.249Z,40.16
2019-06-27T08:19:30.799Z,40.23
2019-06-27T08:21:59.000Z,40.34
2019-06-27T08:24:27.775Z,40.25
2019-06-27T08:26:56.060Z,40.26
2019-06-27T08:29:24.478Z,40.05
2019-06-27T08:31:53.165Z,40.00
2019-06-27T08:34:21.346Z,40.01
2019-06-27T08:36:49.939Z,39.93
2019-06-27T08:39:18.535Z,39.71
2019-06-27T08:41:48.711Z,39.80
2019-06-27T08:44:16.957Z,39.98
2019-06-27T08:46:45.409Z,40.16
2019-06-27T08:49:13.567Z,40.32
2019-06-27T08:51:41.851Z,40.40
2019-06-27T08:54:10.540Z,40.20
2019-06-27T08:56:39.027Z,40.23
2019-06-27T08:59:07.164Z,40.19
2019-06-27T09:01:36.317Z,40.24
2019-06-27T09:04:04.980Z,40.22
2019-06-27T09:06:33.183Z,40.32
2019-06-27T09:09:02.082Z,40.28
2019-06-27T09:11:33.521Z,40.25
2019-06-27T09:14:00.484Z,40.22
2019-06-27T09:16:28.609Z,40.14
2019-06-27T09:18:57.062Z,40.21
2019-06-27T09:21:25.329Z,40.27
2019-06-27T09:23:53.895Z,40.20
2019-06-27T09:26:22.171Z,40.27
2019-06-27T09:28:52.771Z,40.22
2019-06-27T09:31:21.582Z,40.20
2019-06-27T09:33:49.803Z,40.12
2019-06-27T09:36:18.460Z,40.17
2019-06-27T09:38:47.183Z,40.09
2019-06-27T09:41:15.425Z,40.02
2019-06-27T09:43:51.485Z,40.04
2019-06-27T09:46:19.632Z,40.04
2019-06-27T09:48:48.203Z,40.06
2019-06-27T09:51:17.012Z,40.03
2019-06-27T09:53:45.278Z,40.02
2019-06-27T09:56:13.505Z,40.04
2019-06-27T09:58:41.737Z,40.10
2019-06-27T10:01:11.575Z,40.07
2019-06-27T10:03:40.056Z,40.07
2019-06-27T10:06:08.160Z,40.06
2019-06-27T10:08:36.854Z,40.05
2019-06-27T10:11:05.562Z,40.10
2019-06-27T10:13:34.164Z,40.11
2019-06-27T10:16:02.244Z,40.09
2019-06-27T10:18:30.534Z,40.07
2019-06-27T10:20:59.177Z,40.20
2019-06-27T10:23:27.695Z,40.19
2019-06-27T10:25:55.993Z,40.21
2019-06-27T10:28:24.516Z,40.19
2019-06-27T10:30:52.741Z,40.07
2019-06-27T10:33:21.099Z,40.20
2019-06-27T10:35:49.488Z,40.12
2019-06-27T10:38:18.039Z,40.09
2019-06-27T10:40:46.348Z,40.17
2019-06-27T10:43:14.866Z,40.14
2019-06-27T10:45:43.105Z,40.12
2019-06-27T10:48:11.543Z,40.30
2019-06-27T10:50:39.673Z,40.19
2019-06-27T10:53:07.930Z,40.23
2019-06-27T10:55:36.668Z,40.18
2019-06-27T10:58:05.004Z,40.20
2019-06-27T11:00:33.288Z,40.19
2019-06-27T11:03:15.101Z,40.13
2019-06-27T11:05:31.481Z,40.15
2019-06-27T11:07:59.645Z,40.18
2019-06-27T11:10:27.956Z,40.27
2019-06-27T11:12:59.624Z,40.30
2019-06-27T11:15:29.691Z,40.26
2019-06-27T11:17:58.974Z,40.33
2019-06-27T11:20:27.834Z,40.29
2019-06-27T11:22:55.985Z,40.19
2019-06-27T11:25:26.075Z,40.21
2019-06-27T11:27:54.459Z,40.04
2019-06-27T11:30:25.340Z,39.88
2019-06-27T11:33:03.699Z,39.90
2019-06-27T11:35:32.849Z,39.83
2019-06-27T11:38:01.677Z,39.83
2019-06-27T11:40:34.782Z,39.85
2019-06-27T11:43:03.024Z,39.82
2019-06-27T11:45:31.213Z,40.03
2019-06-27T11:47:59.530Z,40.12
2019-06-27T11:50:28.007Z,40.08
2019-06-27T11:52:57.227Z,40.11
2019-06-27T11:55:25.652Z,40.15
2019-06-27T11:58:18.183Z,40.10
2019-06-27T12:00:47.520Z,40.06
2019-06-27T12:03:17.535Z,40.04
2019-06-27T12:05:46.186Z,40.05
2019-06-27T12:08:15.213Z,40.06
2019-06-27T12:10:43.849Z,40.09
2019-06-27T12:13:12.323Z,40.09
2019-06-27T12:15:41.038Z,40.13
2019-06-27T12:18:09.288Z,40.06
2019-06-27T12:20:37.860Z,40.16
2019-06-27T12:23:06.503Z,39.85
2019-06-27T12:25:34.998Z,40.01
2019-06-27T12:28:04.789Z,40.19
2019-06-27T12:30:33.256Z,40.20
2019-06-27T12:33:01.395Z,40.19
2019-06-27T12:35:30.314Z,40.27
2019-06-27T12:37:58.617Z,40.34
2019-06-27T12:40:27.130Z,40.39
2019-06-27T12:42:56.128Z,40.63
2019-06-27T12:45:24.507Z,40.57
2019-06-27T12:47:53.611Z,40.53
2019-06-27T12:50:22.372Z,40.46
2019-06-27T12:52:50.647Z,40.30
2019-06-27T12:55:19.175Z,40.37
2019-06-27T12:57:48.535Z,40.31
2019-06-27T13:00:16.690Z,40.41
2019-06-27T13:02:45.197Z,40.29
2019-06-27T13:05:13.445Z,40.56
2019-06-27T13:07:41.641Z,40.62
2019-06-27T13:10:10.192Z,40.38
2019-06-27T13:12:38.405Z,40.75
2019-06-27T13:15:07.214Z,40.71
2019-06-27T13:17:35.369Z,40.83
2019-06-27T13:20:03.551Z,40.68
2019-06-27T13:22:31.702Z,40.61
2019-06-27T13:24:59.975Z,40.66
2019-06-27T13:27:28.356Z,40.55
2019-06-27T13:29:57.243Z,40.51
2019-06-27T13:32:25.620Z,40.47
2019-06-27T13:34:54.456Z,40.46
2019-06-27T13:37:22.635Z,40.29
2019-06-27T13:39:50.869Z,40.30
2019-06-27T13:42:19.111Z,40.14
2019-06-27T13:44:47.556Z,40.16
2019-06-27T13:47:15.975Z,40.44
2019-06-27T13:49:45.347Z,40.41
2019-06-27T13:52:13.695Z,40.41
2019-06-27T13:54:41.955Z,40.35
2019-06-27T13:57:10.611Z,40.15
2019-06-27T13:59:38.862Z,40.12
2019-06-27T14:02:08.019Z,40.10
2019-06-27T14:04:36.870Z,40.05
2019-06-27T14:07:05.271Z,40.07
2019-06-27T14:09:41.926Z,40.02
2019-06-27T14:12:04.753Z,40.02
2019-06-27T14:14:33.589Z,39.98
2019-06-27T14:17:01.732Z,39.92
2019-06-27T14:19:30.211Z,39.93
2019-06-27T14:22:02.864Z,40.12
2019-06-27T14:24:31.151Z,40.10
2019-06-27T14:26:59.785Z,39.97
2019-06-27T14:29:28.758Z,40.00
2019-06-27T14:31:57.039Z,40.18
2019-06-27T14:34:25.165Z,40.32
2019-06-27T14:36:54.540Z,40.09
2019-06-27T14:39:23.762Z,40.07
2019-06-27T14:41:52.149Z,39.98
2019-06-27T14:44:20.395Z,39.87
2019-06-27T14:46:48.754Z,40.06
2019-06-27T14:49:17.243Z,39.81
2019-06-27T14:51:45.404Z,39.93
2019-06-27T14:54:14.079Z,39.89
2019-06-27T14:56:42.219Z,40.06
2019-06-27T14:59:14.557Z,40.16
2019-06-27T15:01:42.215Z,40.00
2019-06-27T15:04:11.703Z,39.87
2019-06-27T15:06:40.137Z,39.78
2019-06-27T15:09:08.465Z,39.80
2019-06-27T15:11:36.692Z,39.76
2019-06-27T15:14:05.116Z,39.73
2019-06-27T15:16:33.271Z,39.78
2019-06-27T15:19:01.930Z,39.71
2019-06-27T15:21:30.244Z,39.84
2019-06-27T15:23:58.625Z,39.77
2019-06-27T15:26:26.838Z,39.73
2019-06-27T15:28:54.986Z,39.67
2019-06-27T15:31:23.622Z,39.57
2019-06-27T15:33:51.874Z,39.66
2019-06-27T15:36:20.587Z,39.71
2019-06-27T15:38:48.776Z,39.70
2019-06-27T15:41:16.890Z,39.62
2019-06-27T15:43:45.403Z,39.64
2019-06-27T15:46:14.031Z,39.49
2019-06-27T15:48:42.321Z,39.37
2019-06-27T15:51:10.498Z,39.15
2019-06-27T15:53:39.013Z,39.13
2019-06-27T15:56:07.511Z,39.14
2019-06-27T15:58:35.575Z,39.28
2019-06-27T16:01:03.883Z,39.23
2019-06-27T16:03:32.506Z,39.12
2019-06-27T16:06:09.421Z,39.27
2019-06-27T16:08:30.994Z,39.39
2019-06-27T16:10:59.646Z,39.42
2019-06-27T16:13:28.057Z,39.53
2019-06-27T16:15:56.573Z,39.33
2019-06-27T16:18:24.689Z,39.22
2019-06-27T16:20:52.891Z,39.36
2019-06-27T16:23:21.163Z,39.33
2019-06-27T16:25:49.633Z,39.25
2019-06-27T16:28:18.510Z,39.10
2019-06-27T16:30:47.512Z,39.24
2019-06-27T16:33:15.681Z,39.10
2019-06-27T16:35:43.961Z,39.24
2019-06-27T16:38:12.626Z,39.16
2019-06-27T16:40:40.934Z,38.98
2019-06-27T16:43:09.149Z,38.99
2019-06-27T16:45:40.296Z,39.06
2019-06-27T16:48:07.056Z,39.04
2019-06-27T16:50:35.532Z,39.09
2019-06-27T16:53:04.122Z,39.08
2019-06-27T16:55:32.638Z,39.04
2019-06-27T16:58:01.458Z,39.03
2019-06-27T17:00:29.690Z,39.00
2019-06-27T17:02:57.880Z,39.08
2019-06-27T17:05:26.269Z,39.12
2019-06-27T17:07:54.540Z,39.09
2019-06-27T17:10:22.826Z,39.08
2019-06-27T17:12:51.352Z,39.15
2019-06-27T17:15:19.790Z,39.26
2019-06-27T17:17:48.207Z,39.25
2019-06-27T17:20:16.591Z,39.36
2019-06-27T17:22:44.715Z,39.34
2019-06-27T17:25:13.728Z,39.29
2019-06-27T17:27:43.373Z,39.34
2019-06-27T17:30:14.214Z,39.42
2019-06-27T17:32:42.520Z,39.35
2019-06-27T17:35:11.451Z,39.37
2019-06-27T17:37:39.809Z,39.27
2019-06-27T17:40:10.064Z,39.33
2019-06-27T17:42:38.606Z,39.30
2019-06-27T17:45:06.752Z,39.26
2019-06-27T17:47:35.037Z,39.37
2019-06-27T17:50:03.423Z,39.43
2019-06-27T17:52:32.070Z,39.45
2019-06-27T17:55:00.385Z,39.29
2019-06-27T17:57:28.402Z,39.38
2019-06-27T17:59:57.094Z,39.33
2019-06-27T18:02:26.032Z,39.20
2019-06-27T18:04:55.986Z,38.56
2019-06-27T18:07:24.881Z,38.64
2019-06-27T18:09:53.402Z,38.85
2019-06-27T18:12:21.809Z,39.11
2019-06-27T18:14:50.752Z,38.95
2019-06-27T18:17:32.369Z,38.62
2019-06-27T18:19:48.690Z,38.69
2019-06-27T18:22:16.882Z,38.60
2019-06-27T18:24:45.079Z,38.62
2019-06-27T18:27:13.755Z,38.53
2019-06-27T18:29:41.975Z,38.35
2019-06-27T18:32:10.488Z,38.46
2019-06-27T18:34:40.271Z,38.31
2019-06-27T18:37:08.315Z,38.26
2019-06-27T18:39:37.185Z,38.12
2019-06-27T18:42:06.020Z,38.32
2019-06-27T18:44:34.426Z,38.18
2019-06-27T18:47:02.598Z,37.85
2019-06-27T18:49:30.921Z,37.93
2019-06-27T18:51:59.251Z,37.69
2019-06-27T18:54:27.577Z,37.58
2019-06-27T18:56:55.968Z,37.51
2019-06-27T18:59:24.671Z,37.65
2019-06-27T19:01:52.662Z,37.39
2019-06-27T19:04:21.184Z,37.24
2019-06-27T19:06:49.705Z,36.94
2019-06-27T19:09:17.950Z,36.40
2019-06-27T19:11:46.109Z,36.28
2019-06-27T19:14:14.353Z,36.07
2019-06-27T19:16:42.549Z,35.85
2019-06-27T19:19:13.724Z,35.94
2019-06-27T19:21:58.705Z,35.68
2019-06-27T19:24:43.653Z,35.63
2019-06-27T19:27:12.239Z,35.67
2019-06-27T19:29:40.511Z,35.58
2019-06-27T19:32:08.652Z,35.40
2019-06-27T19:34:37.207Z,35.48
2019-06-27T19:37:05.973Z,35.40
2019-06-27T19:39:35.467Z,35.27
2019-06-27T19:42:03.701Z,35.27
2019-06-27T19:44:32.183Z,34.88
2019-06-27T19:47:00.364Z,34.91
2019-06-27T19:49:28.625Z,34.92
2019-06-27T19:51:57.088Z,34.54
2019-06-27T19:54:25.579Z,34.74
2019-06-27T19:56:54.031Z,34.63
2019-06-27T19:59:25.228Z,34.17
2019-06-27T20:01:52.574Z,34.41
2019-06-27T20:04:21.474Z,34.01
2019-06-27T20:06:49.785Z,33.59
2019-06-27T20:12:03.573Z,33.47
2019-06-27T20:14:31.780Z,33.00
2019-06-27T20:17:01.948Z,33.44
2019-06-27T20:19:30.495Z,33.45
2019-06-27T20:21:58.867Z,33.74
2019-06-27T20:24:27.186Z,33.69
2019-06-27T20:26:56.057Z,33.65
2019-06-27T20:29:24.124Z,33.57
2019-06-27T20:31:52.338Z,33.55
2019-06-27T20:34:23.383Z,33.70
2019-06-27T20:36:52.053Z,33.41
2019-06-27T20:39:20.270Z,33.35
2019-06-27T20:41:48.795Z,33.02
2019-06-27T20:44:17.109Z,32.79
2019-06-27T20:46:47.403Z,32.64
2019-06-27T20:49:15.890Z,32.38
2019-06-27T20:51:44.209Z,32.70
2019-06-27T20:54:12.969Z,32.87
2019-06-27T20:56:41.155Z,33.09
2019-06-27T20:59:09.702Z,33.02
2019-06-27T21:01:37.834Z,33.08
2019-06-27T21:04:06.091Z,32.80
2019-06-27T21:06:34.675Z,31.98
2019-06-27T21:09:02.811Z,31.51
2019-06-27T21:11:31.335Z,31.78
2019-06-27T21:14:00.168Z,32.36
2019-06-27T21:16:28.585Z,32.54
2019-06-27T21:18:56.995Z,32.25
2019-06-27T21:21:25.263Z,32.30
2019-06-27T21:23:53.775Z,32.41
2019-06-27T21:26:21.901Z,32.21
2019-06-27T21:28:50.476Z,31.65
2019-06-27T21:31:18.662Z,32.64
2019-06-27T21:33:46.975Z,32.89
2019-06-27T21:36:15.377Z,33.03
2019-06-27T21:38:43.451Z,33.46
2019-06-27T21:41:11.893Z,33.73
2019-06-27T21:43:40.949Z,33.92
2019-06-27T21:46:09.278Z,34.07
2019-06-27T21:48:37.789Z,34.24
2019-06-27T21:51:06.000Z,34.35
2019-06-27T21:53:36.270Z,34.27
2019-06-27T21:56:04.650Z,34.46
2019-06-27T21:58:33.263Z,34.56
2019-06-27T22:01:02.101Z,34.76
2019-06-27T22:03:30.506Z,35.15
2019-06-27T22:05:59.492Z,35.39
2019-06-27T22:08:27.881Z,35.06
2019-06-27T22:10:59.637Z,34.99
2019-06-27T22:13:28.302Z,35.01
2019-06-27T22:15:57.237Z,35.02
2019-06-27T22:18:25.656Z,34.94
2019-06-27T22:20:54.654Z,34.89
2019-06-27T22:23:23.398Z,34.85
2019-06-27T22:25:51.871Z,34.50
2019-06-27T22:28:20.257Z,34.64
2019-06-27T22:30:49.282Z,34.43
2019-06-27T22:33:17.681Z,34.40
2019-06-27T22:35:46.121Z,33.98
2019-06-27T22:38:37.103Z,33.18
2019-06-27T22:41:23.106Z,32.68
2019-06-27T22:44:08.901Z,32.51
2019-06-27T22:46:55.031Z,32.62
2019-06-27T22:49:22.434Z,32.68
2019-06-27T22:52:11.834Z,32.37
2019-06-27T22:54:40.716Z,32.47
2019-06-27T22:57:08.956Z,32.78
2019-06-27T22:59:37.419Z,32.79
2019-06-27T23:02:05.801Z,32.61
2019-06-27T23:04:34.338Z,32.82
2019-06-27T23:07:02.682Z,32.94
2019-06-27T23:09:30.713Z,33.45
2019-06-27T23:11:59.228Z,33.69
2019-06-27T23:14:27.511Z,33.75
2019-06-27T23:16:58.711Z,33.89
2019-06-27T23:19:27.160Z,34.02
2019-06-27T23:21:56.075Z,34.05
2019-06-27T23:24:24.220Z,34.08
2019-06-27T23:26:52.439Z,34.15
2019-06-27T23:29:20.741Z,34.21
2019-06-27T23:31:48.913Z,34.26
2019-06-27T23:34:17.277Z,34.24
2019-06-27T23:36:45.538Z,34.12
2019-06-27T23:39:13.703Z,34.06
2019-06-27T23:41:42.531Z,34.01
2019-06-27T23:44:11.378Z,33.85
2019-06-27T23:46:43.259Z,33.90
2019-06-27T23:49:11.630Z,33.85
2019-06-27T23:51:40.218Z,33.87
2019-06-27T23:54:08.566Z,33.85
2019-06-27T23:56:37.040Z,33.83
2019-06-27T23:59:05.189Z,33.89
